createdAt,value
2022-08-05T00:01:36.050Z,20.14
2022-08-05T00:04:19.400Z,20.18
2022-08-05T00:06:47.576Z,20.15
2022-08-05T00:09:20.465Z,20.08
2022-08-05T00:11:55.859Z,20.02
2022-08-05T00:14:29.104Z,19.94
2022-08-05T00:17:01.961Z,19.86
2022-08-05T00:19:33.400Z,19.79
2022-08-05T00:22:11.248Z,19.75
2022-08-05T00:24:42.253Z,19.75
2022-08-05T00:27:16.783Z,19.75
2022-08-05T00:29:45.144Z,19.73
2022-08-05T00:32:15.066Z,19.70
2022-08-05T00:35:05.558Z,19.69
2022-08-05T00:37:35.440Z,19.64
2022-08-05T00:40:26.850Z,19.64
2022-08-05T00:42:59.451Z,19.60
2022-08-05T00:45:42.930Z,19.55
2022-08-05T00:48:14.955Z,19.55
2022-08-05T00:50:47.279Z,19.54
2022-08-05T00:54:00.765Z,19.51
2022-08-05T00:56:08.182Z,19.48
2022-08-05T00:58:37.400Z,19.42
2022-08-05T01:01:09.079Z,19.28
2022-08-05T01:03:39.266Z,19.25
2022-08-05T01:06:14.059Z,19.22
2022-08-05T01:08:44.837Z,19.17
2022-08-05T01:11:36.634Z,19.10
2022-08-05T01:14:28.384Z,19.10
2022-08-05T01:17:09.249Z,19.11
2022-08-05T01:20:01.823Z,19.11
2022-08-05T01:23:25.508Z,19.07
2022-08-05T01:26:20.617Z,19.06
2022-08-05T01:29:13.946Z,19.04
2022-08-05T01:31:54.556Z,18.99
2022-08-05T01:34:32.992Z,18.99
2022-08-05T01:37:18.068Z,18.91
2022-08-05T01:39:58.911Z,18.88
2022-08-05T01:42:31.787Z,18.85
2022-08-05T01:45:03.200Z,18.80
2022-08-05T01:47:39.546Z,18.79
2022-08-05T01:50:38.223Z,18.69
2022-08-05T01:53:13.825Z,18.69
2022-08-05T01:55:45.720Z,18.68
2022-08-05T01:58:17.195Z,18.64
2022-08-05T02:00:50.631Z,18.62
2022-08-05T02:03:29.255Z,18.62
2022-08-05T02:06:33.387Z,18.58
2022-08-05T02:08:57.994Z,18.50
2022-08-05T02:11:48.133Z,18.41
2022-08-05T02:14:37.441Z,18.34
2022-08-05T02:17:17.085Z,18.36
2022-08-05T02:20:09.145Z,18.29
2022-08-05T02:22:46.868Z,18.41
2022-08-05T02:25:33.293Z,18.37
2022-08-05T02:28:08.654Z,18.25
2022-08-05T02:30:54.290Z,18.29
2022-08-05T02:33:35.991Z,18.23
2022-08-05T02:36:13.579Z,18.11
2022-08-05T02:38:53.680Z,18.19
2022-08-05T02:41:28.953Z,18.19
2022-08-05T02:44:13.502Z,18.11
2022-08-05T02:46:58.702Z,18.13
2022-08-05T02:49:42.401Z,18.09
2022-08-05T02:52:30.036Z,18.12
2022-08-05T02:55:01.584Z,18.06
2022-08-05T02:58:10.337Z,17.97
2022-08-05T03:00:25.344Z,17.87
2022-08-05T03:02:57.488Z,17.99
2022-08-05T03:06:55.219Z,17.89
2022-08-05T03:08:16.607Z,17.89
2022-08-05T03:11:53.096Z,17.82
2022-08-05T03:13:51.730Z,17.64
2022-08-05T03:16:23.192Z,17.53
2022-08-05T03:18:51.974Z,17.66
2022-08-05T03:21:20.155Z,17.64
2022-08-05T03:23:50.345Z,17.70
2022-08-05T03:26:32.152Z,17.66
2022-08-05T03:29:03.508Z,17.70
2022-08-05T03:31:55.791Z,17.65
2022-08-05T03:34:21.195Z,17.58
2022-08-05T03:36:52.556Z,17.55
2022-08-05T03:39:27.165Z,17.53
2022-08-05T03:41:57.314Z,17.51
2022-08-05T03:44:26.000Z,17.50
2022-08-05T03:46:57.120Z,17.51
2022-08-05T03:49:31.012Z,17.48
2022-08-05T03:52:38.089Z,17.53
2022-08-05T03:56:06.287Z,17.51
2022-08-05T03:58:12.409Z,17.57
2022-08-05T04:00:44.261Z,17.44
2022-08-05T04:03:28.449Z,17.46
2022-08-05T04:05:59.371Z,17.31
2022-08-05T04:08:36.545Z,17.27
2022-08-05T04:11:08.680Z,17.29
2022-08-05T04:13:49.990Z,17.37
2022-08-05T04:16:25.540Z,17.34
2022-08-05T04:19:00.479Z,17.34
2022-08-05T04:22:09.044Z,17.41
2022-08-05T04:24:19.733Z,17.39
2022-08-05T04:26:50.985Z,17.45
2022-08-05T04:29:19.688Z,17.47
2022-08-05T04:31:48.477Z,17.48
2022-08-05T04:34:32.762Z,17.50
2022-08-05T04:37:03.223Z,17.54
2022-08-05T04:39:32.179Z,17.54
2022-08-05T04:42:00.532Z,17.59
2022-08-05T04:44:31.480Z,17.66
2022-08-05T04:47:00.074Z,17.70
2022-08-05T04:50:02.976Z,17.77
2022-08-05T04:52:28.070Z,17.70
2022-08-05T04:54:57.063Z,17.73
2022-08-05T04:57:29.294Z,17.82
2022-08-05T05:00:06.727Z,17.74
2022-08-05T05:02:41.499Z,17.79
2022-08-05T05:05:25.839Z,17.94
2022-08-05T05:08:04.906Z,17.96
2022-08-05T05:10:55.739Z,18.06
2022-08-05T05:13:24.620Z,18.14
2022-08-05T05:15:57.608Z,18.21
2022-08-05T05:18:33.936Z,18.24
2022-08-05T05:21:03.746Z,18.36
2022-08-05T05:23:50.370Z,18.50
2022-08-05T05:26:28.343Z,18.55
2022-08-05T05:29:00.886Z,18.58
2022-08-05T05:34:02.548Z,18.87
2022-08-05T05:36:32.223Z,18.85
2022-08-05T05:39:00.497Z,19.07
2022-08-05T05:41:39.981Z,19.16
2022-08-05T05:44:36.022Z,19.31
2022-08-05T05:46:57.895Z,19.41
2022-08-05T05:49:26.505Z,19.54
2022-08-05T05:51:55.554Z,19.73
2022-08-05T05:54:49.756Z,19.90
2022-08-05T05:57:13.764Z,20.06
2022-08-05T05:59:48.847Z,20.17
2022-08-05T06:02:17.307Z,20.32
2022-08-05T06:05:01.372Z,20.50
2022-08-05T06:07:41.797Z,20.45
2022-08-05T06:10:11.171Z,20.73
2022-08-05T06:12:42.215Z,20.79
2022-08-05T06:15:16.435Z,20.97
2022-08-05T06:17:54.437Z,21.13
2022-08-05T06:20:23.248Z,21.24
2022-08-05T06:22:53.776Z,21.48
2022-08-05T06:25:50.537Z,21.62
2022-08-05T06:28:20.800Z,21.84
2022-08-05T06:30:49.452Z,21.93
2022-08-05T06:33:19.434Z,22.17
2022-08-05T06:36:06.972Z,22.36
2022-08-05T06:38:37.303Z,22.54
2022-08-05T06:41:07.755Z,22.70
2022-08-05T06:43:59.083Z,23.01
2022-08-05T06:46:30.185Z,23.18
2022-08-05T06:49:01.097Z,23.31
2022-08-05T06:51:31.332Z,23.59
2022-08-05T06:54:03.853Z,23.77
2022-08-05T06:56:35.160Z,23.87
2022-08-05T06:59:09.662Z,23.95
2022-08-05T07:01:41.503Z,24.21
2022-08-05T07:04:10.569Z,24.39
2022-08-05T07:06:38.555Z,24.64
2022-08-05T07:09:06.457Z,24.86
2022-08-05T07:11:37.044Z,25.12
2022-08-05T07:14:29.376Z,25.31
2022-08-05T07:18:01.493Z,25.58
2022-08-05T07:22:42.098Z,26.06
2022-08-05T07:25:53.943Z,26.39
2022-08-05T07:28:04.244Z,26.60
2022-08-05T07:30:38.816Z,26.87
2022-08-05T07:33:15.725Z,27.04
2022-08-05T07:36:04.910Z,27.25
2022-08-05T07:38:43.723Z,27.46
2022-08-05T07:42:12.993Z,27.69
2022-08-05T07:44:14.312Z,27.93
2022-08-05T07:46:50.022Z,28.18
2022-08-05T07:49:20.543Z,28.32
2022-08-05T07:51:54.433Z,28.62
2022-08-05T07:54:30.654Z,28.79
2022-08-05T07:57:17.732Z,29.09
2022-08-05T07:59:49.063Z,29.27
2022-08-05T08:02:17.996Z,29.51
2022-08-05T08:04:48.195Z,29.65
2022-08-05T08:07:22.440Z,29.89
2022-08-05T08:09:53.198Z,30.02
2022-08-05T08:12:33.378Z,29.98
2022-08-05T08:15:13.839Z,30.01
2022-08-05T08:17:49.760Z,30.06
2022-08-05T08:20:59.819Z,30.11
2022-08-05T08:24:03.642Z,30.18
2022-08-05T08:26:02.655Z,30.51
2022-08-05T08:28:36.731Z,30.82
2022-08-05T08:31:21.515Z,31.06
2022-08-05T08:33:51.767Z,31.11
2022-08-05T08:36:38.332Z,31.21
2022-08-05T08:39:15.006Z,31.26
2022-08-05T08:41:59.843Z,31.45
2022-08-05T08:45:17.168Z,31.52
2022-08-05T08:48:07.156Z,31.57
2022-08-05T08:50:31.077Z,31.63
2022-08-05T08:53:08.129Z,31.90
2022-08-05T08:56:04.215Z,32.10
2022-08-05T08:58:43.174Z,32.24
2022-08-05T09:01:15.820Z,32.22
2022-08-05T09:03:57.317Z,32.09
2022-08-05T09:06:29.896Z,32.07
2022-08-05T09:09:03.389Z,32.00
2022-08-05T09:11:51.612Z,32.00
2022-08-05T09:14:58.531Z,32.00
2022-08-05T09:17:16.098Z,32.04
2022-08-05T09:20:06.368Z,32.07
2022-08-05T09:23:07.819Z,32.22
2022-08-05T09:26:02.880Z,32.26
2022-08-05T09:28:39.171Z,32.28
2022-08-05T09:31:23.511Z,32.27
2022-08-05T09:34:06.992Z,32.53
2022-08-05T09:36:54.699Z,32.78
2022-08-05T09:39:39.410Z,32.94
2022-08-05T09:42:28.214Z,33.02
2022-08-05T09:46:05.058Z,32.97
2022-08-05T09:47:58.327Z,32.79
2022-08-05T09:50:44.045Z,32.91
2022-08-05T09:53:22.941Z,33.03
2022-08-05T09:56:11.342Z,33.19
2022-08-05T09:58:42.403Z,33.26
2022-08-05T10:01:31.499Z,33.16
2022-08-05T10:04:16.056Z,33.23
2022-08-05T10:07:01.531Z,33.25
2022-08-05T10:10:04.266Z,33.20
2022-08-05T10:12:50.005Z,33.18
2022-08-05T10:15:25.806Z,33.25
2022-08-05T10:18:20.341Z,33.37
2022-08-05T10:20:58.301Z,33.47
2022-08-05T10:24:00.055Z,33.55
2022-08-05T10:26:31.578Z,33.52
2022-08-05T10:29:00.201Z,33.48
2022-08-05T10:32:51.500Z,33.45
2022-08-05T10:34:17.218Z,33.55
2022-08-05T10:36:46.486Z,33.74
2022-08-05T10:39:58.959Z,33.91
2022-08-05T10:42:34.338Z,33.98
2022-08-05T10:45:21.499Z,33.90
2022-08-05T10:48:30.670Z,33.87
2022-08-05T10:51:21.993Z,33.71
2022-08-05T10:54:05.873Z,33.89
2022-08-05T10:56:56.147Z,33.94
2022-08-05T11:00:03.140Z,33.87
2022-08-05T11:02:34.652Z,33.81
2022-08-05T11:05:10.797Z,33.75
2022-08-05T11:08:27.498Z,33.91
2022-08-05T11:11:01.068Z,34.11
2022-08-05T11:13:54.721Z,34.16
2022-08-05T11:16:47.741Z,34.24
2022-08-05T11:20:10.193Z,34.41
2022-08-05T11:22:49.778Z,34.51
2022-08-05T11:26:04.250Z,34.54
2022-08-05T11:28:26.838Z,34.33
2022-08-05T11:31:05.911Z,34.20
2022-08-05T11:33:47.924Z,34.18
2022-08-05T11:36:34.429Z,34.13
2022-08-05T11:39:09.674Z,34.28
2022-08-05T11:42:01.658Z,34.31
2022-08-05T11:44:53.357Z,34.52
2022-08-05T11:47:49.446Z,34.55
2022-08-05T11:50:14.231Z,34.75
2022-08-05T11:52:44.010Z,34.89
2022-08-05T11:55:15.626Z,34.73
2022-08-05T11:58:10.720Z,34.53
2022-08-05T12:00:38.372Z,34.27
2022-08-05T12:03:31.448Z,34.22
2022-08-05T12:06:06.414Z,34.29
2022-08-05T12:08:53.489Z,34.26
2022-08-05T12:11:40.144Z,34.15
2022-08-05T12:14:10.388Z,34.08
2022-08-05T12:16:45.482Z,34.09
2022-08-05T12:20:27.062Z,34.09
2022-08-05T12:22:09.584Z,34.25
2022-08-05T12:24:43.645Z,34.63
2022-08-05T12:27:33.505Z,34.75
2022-08-05T12:30:10.696Z,34.60
2022-08-05T12:32:51.362Z,34.48
2022-08-05T12:35:21.856Z,34.47
2022-08-05T12:37:50.302Z,34.40
2022-08-05T12:40:26.794Z,34.39
2022-08-05T12:42:56.981Z,34.34
2022-08-05T12:45:49.642Z,34.35
2022-08-05T12:48:32.305Z,34.40
2022-08-05T12:52:09.884Z,34.57
2022-08-05T12:54:16.849Z,34.78
2022-08-05T12:57:13.309Z,34.85
2022-08-05T13:01:56.979Z,34.82
2022-08-05T13:02:40.851Z,35.02
2022-08-05T13:05:12.536Z,35.15
2022-08-05T13:07:59.186Z,35.27
2022-08-05T13:10:33.361Z,35.45
2022-08-05T13:13:08.897Z,35.40
2022-08-05T13:15:50.575Z,35.17
2022-08-05T13:18:20.516Z,34.98
2022-08-05T13:20:50.036Z,34.93
2022-08-05T13:23:22.402Z,34.92
2022-08-05T13:25:59.655Z,35.05
2022-08-05T13:28:32.299Z,35.29
2022-08-05T13:31:03.286Z,35.60
2022-08-05T13:34:22.810Z,35.71
2022-08-05T13:36:27.271Z,35.57
2022-08-05T13:38:56.925Z,35.37
2022-08-05T13:41:25.869Z,35.22
2022-08-05T13:44:05.706Z,35.05
2022-08-05T13:46:44.339Z,35.06
2022-08-05T13:49:21.919Z,35.03
2022-08-05T13:51:49.828Z,34.91
2022-08-05T13:54:24.926Z,34.85
2022-08-05T13:56:53.755Z,34.99
2022-08-05T13:59:26.097Z,35.19
2022-08-05T14:02:00.699Z,35.50
2022-08-05T14:04:52.942Z,35.78
2022-08-05T14:08:05.548Z,35.91
2022-08-05T14:10:30.643Z,35.78
2022-08-05T14:12:59.949Z,35.89
2022-08-05T14:16:05.914Z,35.97
2022-08-05T14:18:23.051Z,35.90
2022-08-05T14:20:54.731Z,35.79
2022-08-05T14:23:25.803Z,35.86
2022-08-05T14:25:59.072Z,35.98
2022-08-05T14:28:31.255Z,35.85
2022-08-05T14:31:00.848Z,35.73
2022-08-05T14:33:56.416Z,35.78
2022-08-05T14:36:21.333Z,35.77
2022-08-05T14:38:51.217Z,35.77
2022-08-05T14:41:19.660Z,35.97
2022-08-05T14:44:01.615Z,35.98
2022-08-05T14:46:35.629Z,35.86
2022-08-05T14:49:07.544Z,35.83
2022-08-05T14:51:38.420Z,35.73
2022-08-05T14:54:28.021Z,35.70
2022-08-05T14:56:59.854Z,35.70
2022-08-05T14:59:29.641Z,35.68
2022-08-05T15:02:15.131Z,35.79
2022-08-05T15:04:44.941Z,35.99
2022-08-05T15:08:06.139Z,36.15
2022-08-05T15:10:04.615Z,36.21
2022-08-05T15:12:59.711Z,36.33
2022-08-05T15:15:54.548Z,36.51
2022-08-05T15:18:17.277Z,36.57
2022-08-05T15:20:46.048Z,36.65
2022-08-05T15:23:14.439Z,36.51
2022-08-05T15:25:53.005Z,36.55
2022-08-05T15:28:27.059Z,36.29
2022-08-05T15:30:55.952Z,36.16
2022-08-05T15:34:05.145Z,35.99
2022-08-05T15:36:17.819Z,35.88
2022-08-05T15:40:59.775Z,35.64
2022-08-05T15:41:57.475Z,35.41
2022-08-05T15:44:30.297Z,35.25
2022-08-05T15:47:01.288Z,35.12
2022-08-05T15:49:43.266Z,34.85
2022-08-05T15:52:51.989Z,34.64
2022-08-05T15:55:16.135Z,34.54
2022-08-05T15:57:44.937Z,34.42
2022-08-05T16:00:16.786Z,34.19
2022-08-05T16:02:45.277Z,34.21
2022-08-05T16:05:15.046Z,34.09
2022-08-05T16:07:46.210Z,34.08
2022-08-05T16:10:14.574Z,33.96
2022-08-05T16:12:44.035Z,33.94
2022-08-05T16:15:18.772Z,33.94
2022-08-05T16:17:57.511Z,33.86
2022-08-05T16:20:27.962Z,33.63
2022-08-05T16:22:56.115Z,33.49
2022-08-05T16:25:34.180Z,33.54
2022-08-05T16:28:09.827Z,33.62
2022-08-05T16:30:38.487Z,33.48
2022-08-05T16:33:06.633Z,33.51
2022-08-05T16:35:42.466Z,33.45
2022-08-05T16:38:18.777Z,33.39
2022-08-05T16:41:01.441Z,33.36
2022-08-05T16:43:33.085Z,33.33
2022-08-05T16:46:23.698Z,33.27
2022-08-05T16:48:52.732Z,33.30
2022-08-05T16:51:20.812Z,33.32
2022-08-05T16:54:05.155Z,33.25
2022-08-05T16:56:41.494Z,33.24
2022-08-05T16:59:10.548Z,33.25
2022-08-05T17:01:54.109Z,33.29
2022-08-05T17:04:28.536Z,33.34
2022-08-05T17:07:03.611Z,33.21
2022-08-05T17:09:58.053Z,33.00
2022-08-05T17:12:51.404Z,32.82
2022-08-05T17:15:19.194Z,32.84
2022-08-05T17:17:55.141Z,32.69
2022-08-05T17:20:23.320Z,32.43
2022-08-05T17:22:55.645Z,32.44
2022-08-05T17:25:39.367Z,32.43
2022-08-05T17:28:07.861Z,32.36
2022-08-05T17:30:50.297Z,32.22
2022-08-05T17:33:20.785Z,32.14
2022-08-05T17:36:07.526Z,32.09
2022-08-05T17:38:36.455Z,31.88
2022-08-05T17:41:05.737Z,31.75
2022-08-05T17:43:50.335Z,31.62
2022-08-05T17:46:21.443Z,31.46
2022-08-05T17:48:49.580Z,31.33
2022-08-05T17:51:21.457Z,31.11
2022-08-05T17:53:54.739Z,31.11
2022-08-05T17:56:23.024Z,30.84
2022-08-05T17:58:56.448Z,30.57
2022-08-05T18:01:24.373Z,30.33
2022-08-05T18:04:04.363Z,30.04
2022-08-05T18:06:33.925Z,29.79
2022-08-05T18:09:03.605Z,29.78
2022-08-05T18:11:33.525Z,29.73
2022-08-05T18:14:13.672Z,29.72
2022-08-05T18:16:51.800Z,29.41
2022-08-05T18:19:26.962Z,29.32
2022-08-05T18:22:08.962Z,29.09
2022-08-05T18:24:40.629Z,28.93
2022-08-05T18:27:12.685Z,28.60
2022-08-05T18:29:53.716Z,28.64
2022-08-05T18:32:28.313Z,28.51
2022-08-05T18:34:58.108Z,28.38
2022-08-05T18:37:34.440Z,28.25
2022-08-05T18:41:52.746Z,28.24
2022-08-05T18:43:04.088Z,28.23
2022-08-05T18:45:41.649Z,27.90
2022-08-05T18:48:11.023Z,27.94
2022-08-05T18:51:01.653Z,27.86
2022-08-05T18:53:50.419Z,27.72
2022-08-05T18:56:21.581Z,27.76
2022-08-05T18:58:54.984Z,27.71
2022-08-05T19:01:33.364Z,27.56
2022-08-05T19:04:24.087Z,27.39
2022-08-05T19:06:53.580Z,27.32
2022-08-05T19:09:21.885Z,27.23
2022-08-05T19:12:00.611Z,27.13
2022-08-05T19:14:44.536Z,27.14
2022-08-05T19:17:21.305Z,27.01
2022-08-05T19:19:50.160Z,26.83
2022-08-05T19:22:18.507Z,26.74
2022-08-05T19:24:54.316Z,26.47
2022-08-05T19:27:27.840Z,26.58
2022-08-05T19:29:58.960Z,26.53
2022-08-05T19:32:27.939Z,26.29
2022-08-05T19:34:57.893Z,26.36
2022-08-05T19:37:35.339Z,26.21
2022-08-05T19:40:15.548Z,26.10
2022-08-05T19:43:05.513Z,25.99
2022-08-05T19:45:36.261Z,25.88
2022-08-05T19:48:06.301Z,25.90
2022-08-05T19:50:35.208Z,25.81
2022-08-05T19:53:10.325Z,25.78
2022-08-05T19:56:15.347Z,25.55
2022-08-05T19:58:29.299Z,25.57
2022-08-05T20:00:59.055Z,25.49
2022-08-05T20:03:27.580Z,25.40
2022-08-05T20:06:15.282Z,25.34
2022-08-05T20:08:47.347Z,25.22
2022-08-05T20:11:18.001Z,25.17
2022-08-05T20:13:58.367Z,25.08
2022-08-05T20:16:35.599Z,25.01
2022-08-05T20:19:04.516Z,25.03
2022-08-05T20:21:33.190Z,24.92
2022-08-05T20:24:01.137Z,24.85
2022-08-05T20:26:29.562Z,24.73
2022-08-05T20:29:00.782Z,24.67
2022-08-05T20:31:42.044Z,24.61
2022-08-05T20:34:17.239Z,24.35
2022-08-05T20:36:45.501Z,24.46
2022-08-05T20:39:16.420Z,24.28
2022-08-05T20:41:47.865Z,24.26
2022-08-05T20:44:30.403Z,24.13
2022-08-05T20:47:01.560Z,24.13
2022-08-05T20:49:33.215Z,24.09
2022-08-05T20:52:10.784Z,24.05
2022-08-05T20:54:59.719Z,23.97
2022-08-05T20:57:43.230Z,23.94
2022-08-05T21:00:41.005Z,23.90
2022-08-05T21:03:06.132Z,23.77
2022-08-05T21:05:53.653Z,23.67
2022-08-05T21:08:42.107Z,23.75
2022-08-05T21:11:12.685Z,23.53
2022-08-05T21:13:55.812Z,23.41
2022-08-05T21:16:29.376Z,23.36
2022-08-05T21:19:03.605Z,23.35
2022-08-05T21:21:39.459Z,23.38
2022-08-05T21:24:15.376Z,23.21
2022-08-05T21:26:50.568Z,23.27
2022-08-05T21:29:26.676Z,23.11
2022-08-05T21:32:04.142Z,23.16
2022-08-05T21:34:32.912Z,22.94
2022-08-05T21:37:04.954Z,23.02
2022-08-05T21:39:34.720Z,22.89
2022-08-05T21:42:30.479Z,23.01
2022-08-05T21:44:57.739Z,22.85
2022-08-05T21:47:54.956Z,22.81
2022-08-05T21:50:16.894Z,22.85
2022-08-05T21:52:47.432Z,22.77
2022-08-05T21:55:15.634Z,22.76
2022-08-05T21:57:43.614Z,22.69
2022-08-05T22:00:15.372Z,22.59
2022-08-05T22:02:44.006Z,22.46
2022-08-05T22:05:13.884Z,22.50
2022-08-05T22:07:58.004Z,22.41
2022-08-05T22:10:31.027Z,22.24
2022-08-05T22:13:21.980Z,22.39
2022-08-05T22:16:02.533Z,22.18
2022-08-05T22:18:38.993Z,22.24
2022-08-05T22:21:19.172Z,22.02
2022-08-05T22:24:08.790Z,22.01
2022-08-05T22:26:59.943Z,22.02
2022-08-05T22:29:30.725Z,22.05
2022-08-05T22:32:03.220Z,21.93
2022-08-05T22:34:35.113Z,21.76
2022-08-05T22:37:04.672Z,21.69
2022-08-05T22:39:34.756Z,21.73
2022-08-05T22:42:12.734Z,21.71
2022-08-05T22:44:53.736Z,21.50
2022-08-05T22:47:29.771Z,21.50
2022-08-05T22:50:20.286Z,21.48
2022-08-05T22:52:51.232Z,21.43
2022-08-05T22:55:21.847Z,21.50
2022-08-05T22:57:55.081Z,21.49
2022-08-05T23:00:24.065Z,21.45
2022-08-05T23:02:55.092Z,21.44
2022-08-05T23:05:23.750Z,21.26
2022-08-05T23:07:52.989Z,21.40
2022-08-05T23:10:23.489Z,21.36
2022-08-05T23:12:54.466Z,21.28
2022-08-05T23:15:34.815Z,21.20
2022-08-05T23:18:05.897Z,21.21
2022-08-05T23:20:39.753Z,21.02
2022-08-05T23:23:08.796Z,20.91
2022-08-05T23:25:53.627Z,20.86
2022-08-05T23:28:28.880Z,20.79
2022-08-05T23:31:16.231Z,20.84
2022-08-05T23:34:06.185Z,20.76
2022-08-05T23:36:38.482Z,20.81
2022-08-05T23:39:08.388Z,20.67
2022-08-05T23:41:37.329Z,20.75
2022-08-05T23:44:09.190Z,20.70
2022-08-05T23:46:37.584Z,20.77
2022-08-05T23:49:16.461Z,20.75
2022-08-05T23:52:05.519Z,20.77
2022-08-05T23:54:38.261Z,20.75
2022-08-05T23:57:08.235Z,20.92
